createdAt,value
2018-04-23T00:00:05.045Z,86.90
2018-04-23T00:02:31.437Z,86.90
2018-04-23T00:04:59.442Z,86.70
2018-04-23T00:07:25.844Z,86.60
2018-04-23T00:09:52.978Z,86.30
2018-04-23T00:12:19.369Z,86.30
2018-04-23T00:14:45.754Z,86.70
2018-04-23T00:17:12.891Z,86.50
2018-04-23T00:19:40.771Z,87.00
2018-04-23T00:22:07.904Z,86.50
2018-04-23T00:24:35.781Z,86.70
2018-04-23T00:27:02.212Z,86.70
2018-04-23T00:29:28.618Z,87.00
2018-04-23T00:31:55.012Z,86.10
2018-04-23T00:34:21.435Z,86.20
2018-04-23T00:36:48.583Z,86.00
2018-04-23T00:39:15.011Z,86.00
2018-04-23T00:41:42.154Z,86.10
2018-04-23T00:44:08.545Z,86.10
2018-04-23T00:46:34.942Z,86.20
2018-04-23T00:49:01.366Z,85.70
2018-04-23T00:51:27.781Z,86.00
2018-04-23T00:53:54.160Z,86.50
2018-04-23T00:56:20.554Z,86.30
2018-04-23T00:58:47.705Z,85.90
2018-04-23T01:01:14.842Z,86.50
2018-04-23T01:03:41.240Z,86.50
2018-04-23T01:06:07.630Z,86.80
2018-04-23T01:08:34.809Z,87.00
2018-04-23T01:11:01.208Z,87.00
2018-04-23T01:13:28.345Z,86.50
2018-04-23T01:15:55.547Z,86.60
2018-04-23T01:18:21.958Z,86.60
2018-04-23T01:20:48.372Z,86.40
2018-04-23T01:23:15.535Z,87.00
2018-04-23T01:25:41.940Z,87.00
2018-04-23T01:28:08.347Z,87.30
2018-04-23T01:30:34.781Z,86.60
2018-04-23T01:33:01.172Z,86.70
2018-04-23T01:35:27.577Z,86.70
2018-04-23T01:37:54.752Z,87.70
2018-04-23T01:40:21.166Z,87.10
2018-04-23T01:42:48.316Z,87.70
2018-04-23T01:45:15.492Z,89.00
2018-04-23T01:47:41.897Z,88.40
2018-04-23T01:50:09.053Z,89.30
2018-04-23T01:52:36.207Z,88.40
2018-04-23T01:55:03.369Z,87.70
2018-04-23T01:57:29.772Z,87.70
2018-04-23T01:59:56.920Z,87.70
2018-04-23T02:02:23.330Z,87.60
2018-04-23T02:04:49.700Z,86.90
2018-04-23T02:07:16.855Z,87.30
2018-04-23T02:09:43.259Z,87.30
2018-04-23T02:12:09.686Z,87.30
2018-04-23T02:14:36.132Z,88.00
2018-04-23T02:17:02.593Z,89.20
2018-04-23T02:19:29.076Z,90.10
2018-04-23T02:21:55.472Z,89.60
2018-04-23T02:24:21.872Z,89.40
2018-04-23T02:26:49.016Z,89.70
2018-04-23T02:29:15.414Z,89.10
2018-04-23T02:31:41.861Z,88.90
2018-04-23T02:34:08.259Z,88.80
2018-04-23T02:36:34.670Z,88.90
2018-04-23T02:39:01.081Z,89.00
2018-04-23T02:41:28.232Z,89.20
2018-04-23T02:43:54.629Z,89.20
2018-04-23T02:46:21.046Z,88.90
2018-04-23T02:48:47.446Z,88.60
2018-04-23T02:51:14.598Z,88.80
2018-04-23T02:53:41.013Z,88.70
2018-04-23T02:56:08.157Z,88.00
2018-04-23T02:58:34.542Z,88.00
2018-04-23T03:01:00.934Z,88.00
2018-04-23T03:03:28.064Z,89.40
2018-04-23T03:05:55.972Z,90.00
2018-04-23T03:08:22.366Z,90.00
2018-04-23T03:10:50.376Z,89.40
2018-04-23T03:13:16.795Z,89.40
2018-04-23T03:15:43.202Z,88.80
2018-04-23T03:18:10.360Z,88.70
2018-04-23T03:20:38.801Z,88.70
2018-04-23T03:23:05.211Z,89.00
2018-04-23T03:25:31.612Z,89.80
2018-04-23T03:27:58.808Z,90.80
2018-04-23T03:30:25.203Z,90.40
2018-04-23T03:32:52.334Z,90.90
2018-04-23T03:35:18.771Z,90.80
2018-04-23T03:37:45.912Z,93.10
2018-04-23T03:40:12.324Z,93.10
2018-04-23T03:42:38.771Z,93.10
2018-04-23T03:45:05.191Z,92.90
2018-04-23T03:47:31.585Z,92.50
2018-04-23T03:49:57.978Z,92.30
2018-04-23T03:52:24.379Z,92.20
2018-04-23T03:54:50.771Z,91.90
2018-04-23T03:57:17.181Z,91.80
2018-04-23T03:59:44.345Z,92.80
2018-04-23T04:02:10.773Z,92.70
2018-04-23T04:04:37.923Z,94.00
2018-04-23T04:07:05.088Z,94.20
2018-04-23T04:09:32.221Z,93.00
2018-04-23T04:12:11.686Z,92.90
2018-04-23T04:14:50.663Z,92.80
2018-04-23T04:17:17.110Z,92.70
2018-04-23T04:19:44.252Z,93.00
2018-04-23T04:22:10.698Z,92.70
2018-04-23T04:24:37.836Z,92.90
2018-04-23T04:27:05.364Z,92.60
2018-04-23T04:29:31.751Z,92.70
2018-04-23T04:31:59.021Z,92.70
2018-04-23T04:34:25.441Z,92.70
2018-04-23T04:36:51.902Z,92.80
2018-04-23T04:39:18.316Z,92.90
2018-04-23T04:41:44.725Z,92.70
2018-04-23T04:44:11.869Z,93.00
2018-04-23T04:46:39.014Z,92.90
2018-04-23T04:49:06.146Z,93.60
2018-04-23T04:51:32.542Z,93.60
2018-04-23T04:53:58.937Z,93.30
2018-04-23T04:56:26.097Z,93.20
2018-04-23T04:58:53.230Z,93.10
2018-04-23T05:01:20.372Z,92.50
2018-04-23T05:03:46.796Z,92.60
2018-04-23T05:06:13.200Z,92.80
2018-04-23T05:08:39.608Z,92.40
2018-04-23T05:11:06.770Z,92.90
2018-04-23T05:13:33.170Z,93.00
2018-04-23T05:16:00.311Z,92.90
2018-04-23T05:18:26.747Z,92.90
2018-04-23T05:20:53.179Z,92.80
2018-04-23T05:23:19.592Z,92.70
2018-04-23T05:25:46.007Z,92.60
2018-04-23T05:28:12.434Z,92.70
2018-04-23T05:30:38.836Z,92.80
2018-04-23T05:33:05.320Z,92.40
2018-04-23T05:35:31.761Z,92.40
2018-04-23T05:37:58.183Z,92.80
2018-04-23T05:40:24.580Z,92.80
2018-04-23T05:42:51.008Z,92.80
2018-04-23T05:45:17.455Z,92.10
2018-04-23T05:47:43.847Z,91.90
2018-04-23T05:50:10.321Z,91.50
2018-04-23T05:52:36.719Z,91.60
2018-04-23T05:55:03.878Z,91.30
2018-04-23T05:57:31.050Z,90.30
2018-04-23T05:59:57.446Z,90.30
2018-04-23T06:02:24.603Z,89.00
2018-04-23T06:04:51.762Z,88.50
2018-04-23T06:07:18.170Z,88.50
2018-04-23T06:09:45.301Z,87.20
2018-04-23T06:12:11.711Z,86.70
2018-04-23T06:14:38.133Z,88.00
2018-04-23T06:17:04.539Z,86.80
2018-04-23T06:19:30.984Z,86.90
2018-04-23T06:21:57.387Z,86.70
2018-04-23T06:24:24.597Z,85.30
2018-04-23T06:26:51.005Z,85.30
2018-04-23T06:29:17.402Z,85.90
2018-04-23T06:31:43.811Z,85.30
2018-04-23T06:34:11.689Z,85.10
2018-04-23T06:36:38.100Z,85.00
2018-04-23T06:39:04.552Z,85.10
2018-04-23T06:41:32.460Z,84.80
2018-04-23T06:43:58.917Z,84.80
2018-04-23T06:46:25.382Z,84.80
2018-04-23T06:48:51.734Z,84.80
2018-04-23T06:51:18.953Z,83.70
2018-04-23T06:53:45.365Z,83.50
2018-04-23T06:56:11.779Z,82.70
2018-04-23T06:58:38.168Z,82.90
2018-04-23T07:01:04.610Z,82.50
2018-04-23T07:03:32.494Z,82.10
2018-04-23T07:05:59.658Z,82.00
2018-04-23T07:08:26.104Z,82.00
2018-04-23T07:10:52.500Z,82.00
2018-04-23T07:13:19.639Z,81.10
2018-04-23T07:15:47.558Z,81.90
2018-04-23T07:18:13.979Z,81.90
2018-04-23T07:20:40.385Z,81.40
2018-04-23T07:23:07.575Z,81.00
2018-04-23T07:25:33.962Z,80.90
2018-04-23T07:28:01.126Z,79.50
2018-04-23T07:30:28.259Z,79.50
2018-04-23T07:32:54.657Z,79.50
2018-04-23T07:35:21.049Z,78.40
2018-04-23T07:37:48.220Z,77.70
2018-04-23T07:40:14.626Z,77.60
2018-04-23T07:42:41.759Z,75.50
2018-04-23T07:45:09.654Z,75.90
2018-04-23T07:47:36.063Z,75.80
2018-04-23T07:50:03.256Z,73.90
2018-04-23T07:52:29.663Z,73.10
2018-04-23T07:54:56.800Z,72.90
2018-04-23T07:57:23.314Z,72.70
2018-04-23T07:59:49.747Z,72.40
2018-04-23T08:02:16.190Z,73.40
2018-04-23T08:04:43.341Z,71.40
2018-04-23T08:07:11.218Z,72.30
2018-04-23T08:09:38.415Z,67.70
2018-04-23T08:12:04.834Z,67.60
2018-04-23T08:14:31.242Z,64.00
2018-04-23T08:16:58.369Z,65.80
2018-04-23T08:19:26.260Z,63.10
2018-04-23T08:21:53.394Z,61.30
2018-04-23T08:24:21.290Z,62.00
2018-04-23T08:26:48.421Z,60.50
2018-04-23T08:29:14.841Z,60.60
2018-04-23T08:31:41.268Z,62.00
2018-04-23T08:34:09.156Z,61.80
2018-04-23T08:36:36.327Z,63.50
2018-04-23T08:39:02.847Z,63.50
2018-04-23T08:41:30.011Z,65.80
2018-04-23T08:43:56.473Z,65.70
2018-04-23T08:46:22.859Z,63.70
2018-04-23T08:48:49.252Z,63.10
2018-04-23T08:51:15.716Z,64.40
2018-04-23T08:53:42.164Z,65.30
2018-04-23T08:56:08.638Z,59.80
2018-04-23T08:58:35.044Z,65.50
2018-04-23T09:03:35.638Z,63.90
2018-04-23T09:06:02.041Z,61.80
2018-04-23T09:08:28.451Z,60.80
2018-04-23T09:10:55.627Z,60.40
2018-04-23T09:13:22.063Z,60.40
2018-04-23T09:15:48.474Z,60.60
2018-04-23T09:18:15.628Z,62.20
2018-04-23T09:20:42.029Z,62.20
2018-04-23T09:23:08.430Z,62.50
2018-04-23T09:25:34.837Z,61.00
2018-04-23T09:28:01.237Z,62.40
2018-04-23T09:30:28.383Z,65.50
2018-04-23T09:32:56.918Z,65.20
2018-04-23T09:35:23.330Z,65.20
2018-04-23T09:37:49.726Z,66.50
2018-04-23T09:40:16.132Z,67.70
2018-04-23T09:42:42.511Z,68.60
2018-04-23T09:45:09.730Z,67.80
2018-04-23T09:47:36.143Z,67.70
2018-04-23T09:50:02.599Z,65.70
2018-04-23T09:52:31.035Z,64.00
2018-04-23T09:54:57.524Z,63.70
2018-04-23T09:57:23.933Z,65.00
2018-04-23T09:59:50.368Z,64.30
2018-04-23T10:02:20.625Z,64.30
2018-04-23T10:04:47.954Z,64.20
2018-04-23T10:07:15.111Z,64.90
2018-04-23T10:09:41.529Z,64.70
2018-04-23T10:12:07.997Z,61.20
2018-04-23T10:14:34.395Z,60.50
2018-04-23T10:17:00.800Z,62.90
2018-04-23T10:19:27.203Z,58.60
2018-04-23T10:21:54.343Z,59.10
2018-04-23T10:24:21.545Z,57.10
2018-04-23T10:26:47.959Z,57.10
2018-04-23T10:29:14.363Z,57.60
2018-04-23T10:31:40.751Z,56.80
2018-04-23T10:34:07.161Z,55.30
2018-04-23T10:36:33.580Z,54.10
2018-04-23T10:38:59.999Z,54.30
2018-04-23T10:41:26.408Z,54.20
2018-04-23T10:43:52.822Z,54.60
2018-04-23T10:46:19.224Z,53.20
2018-04-23T10:48:45.640Z,54.80
2018-04-23T10:51:12.793Z,50.80
2018-04-23T10:53:39.182Z,50.80
2018-04-23T10:56:12.588Z,52.60
2018-04-23T10:58:40.487Z,55.40
2018-04-23T11:01:06.910Z,55.40
2018-04-23T11:03:34.065Z,52.90
2018-04-23T11:06:01.356Z,55.80
2018-04-23T11:08:27.767Z,55.10
2018-04-23T11:10:54.169Z,54.80
2018-04-23T11:13:20.564Z,51.60
2018-04-23T11:15:46.963Z,50.30
2018-04-23T11:18:13.368Z,51.90
2018-04-23T11:20:40.520Z,53.30
2018-04-23T11:23:06.897Z,53.30
2018-04-23T11:25:33.301Z,49.70
2018-04-23T11:28:00.431Z,50.50
2018-04-23T11:30:26.819Z,50.50
2018-04-23T11:32:53.211Z,52.20
2018-04-23T11:35:20.353Z,51.30
2018-04-23T11:37:46.761Z,51.20
2018-04-23T11:40:13.884Z,51.80
2018-04-23T11:42:40.293Z,51.70
2018-04-23T11:45:06.788Z,52.80
2018-04-23T11:47:33.191Z,54.10
2018-04-23T11:49:59.595Z,52.60
2018-04-23T11:52:25.985Z,53.60
2018-04-23T11:54:52.392Z,49.50
2018-04-23T11:57:18.793Z,50.20
2018-04-23T11:59:45.176Z,48.60
2018-04-23T12:02:11.583Z,49.60
2018-04-23T12:04:38.010Z,51.70
2018-04-23T12:07:04.406Z,49.90
2018-04-23T12:09:31.583Z,48.40
2018-04-23T12:11:57.979Z,48.60
2018-04-23T12:14:25.130Z,46.80
2018-04-23T12:16:52.277Z,47.50
2018-04-23T12:19:18.681Z,47.50
2018-04-23T12:21:45.155Z,49.70
2018-04-23T12:24:13.381Z,48.30
2018-04-23T12:26:39.798Z,48.70
2018-04-23T12:29:06.178Z,50.90
2018-04-23T12:31:32.566Z,48.50
2018-04-23T12:33:58.959Z,49.00
2018-04-23T12:36:25.354Z,47.40
2018-04-23T12:38:51.730Z,46.10
2018-04-23T12:41:18.865Z,47.60
2018-04-23T12:43:45.996Z,49.10
2018-04-23T12:46:13.873Z,49.30
2018-04-23T12:48:40.303Z,49.30
2018-04-23T12:51:06.709Z,49.20
2018-04-23T12:53:33.099Z,49.70
2018-04-23T12:56:00.074Z,51.80
2018-04-23T12:58:26.497Z,52.80
2018-04-23T13:00:52.902Z,54.50
2018-04-23T13:03:20.038Z,55.40
2018-04-23T13:05:46.471Z,55.50
2018-04-23T13:08:13.634Z,55.20
2018-04-23T13:10:40.769Z,56.30
2018-04-23T13:13:07.164Z,56.20
2018-04-23T13:15:33.547Z,57.70
2018-04-23T13:18:00.692Z,56.00
2018-04-23T13:20:27.821Z,56.80
2018-04-23T13:22:54.353Z,56.30
2018-04-23T13:25:22.223Z,53.90
2018-04-23T13:27:48.618Z,54.00
2018-04-23T13:30:15.078Z,53.60
2018-04-23T13:32:42.990Z,51.70
2018-04-23T13:35:09.403Z,51.60
2018-04-23T13:37:35.807Z,51.00
2018-04-23T13:40:02.224Z,49.70
2018-04-23T13:42:28.675Z,49.20
2018-04-23T13:44:55.074Z,50.50
2018-04-23T13:47:21.503Z,47.90
2018-04-23T13:49:47.900Z,44.00
2018-04-23T13:52:14.297Z,41.90
2018-04-23T13:54:40.705Z,42.80
2018-04-23T13:57:07.098Z,44.30
2018-04-23T13:59:33.511Z,42.90
2018-04-23T14:02:01.426Z,44.20
2018-04-23T14:04:27.844Z,44.10
2018-04-23T14:06:59.298Z,43.60
2018-04-23T14:09:25.649Z,43.30
2018-04-23T14:11:52.802Z,43.90
2018-04-23T14:14:19.252Z,43.80
2018-04-23T14:16:45.754Z,43.90
2018-04-23T14:19:12.893Z,44.40
2018-04-23T14:21:40.053Z,44.80
2018-04-23T14:24:07.199Z,44.10
2018-04-23T14:26:34.356Z,45.00
2018-04-23T14:29:01.511Z,45.30
2018-04-23T14:31:27.942Z,45.30
2018-04-23T14:33:54.338Z,45.50
2018-04-23T14:36:20.724Z,43.00
2018-04-23T14:38:47.227Z,43.70
2018-04-23T14:41:14.371Z,43.30
2018-04-23T14:43:40.774Z,43.20
2018-04-23T14:46:07.175Z,45.50
2018-04-23T14:48:33.609Z,44.50
2018-04-23T14:51:00.032Z,42.40
2018-04-23T14:53:26.440Z,42.80
2018-04-23T14:55:53.651Z,41.80
2018-04-23T14:58:20.040Z,42.00
2018-04-23T15:00:46.464Z,42.60
2018-04-23T15:03:13.627Z,44.50
2018-04-23T15:05:40.199Z,44.40
2018-04-23T15:08:06.700Z,43.60
2018-04-23T15:10:33.152Z,45.60
2018-04-23T15:12:59.598Z,45.30
2018-04-23T15:15:25.992Z,43.40
2018-04-23T15:17:53.148Z,41.40
2018-04-23T15:20:19.552Z,41.40
2018-04-23T15:22:45.971Z,42.20
2018-04-23T15:25:12.395Z,42.70
2018-04-23T15:27:38.811Z,43.00
2018-04-23T15:30:05.214Z,51.90
2018-04-23T15:32:31.663Z,56.80
2018-04-23T15:34:58.051Z,59.40
2018-04-23T15:37:24.456Z,60.00
2018-04-23T15:39:51.011Z,62.30
2018-04-23T15:42:18.252Z,65.20
2018-04-23T15:44:44.642Z,65.10
2018-04-23T15:47:11.082Z,66.10
2018-04-23T15:49:37.494Z,66.30
2018-04-23T15:52:03.920Z,65.50
2018-04-23T15:54:31.139Z,66.00
2018-04-23T15:56:57.547Z,66.00
2018-04-23T15:59:23.928Z,66.10
2018-04-23T16:01:51.053Z,66.20
2018-04-23T16:04:17.450Z,66.10
2018-04-23T16:06:43.882Z,66.90
2018-04-23T16:09:10.271Z,68.20
2018-04-23T16:11:36.700Z,68.00
2018-04-23T16:14:03.840Z,68.20
2018-04-23T16:16:30.241Z,68.10
2018-04-23T16:18:56.626Z,67.70
2018-04-23T16:21:24.685Z,67.60
2018-04-23T16:23:51.831Z,67.40
2018-04-23T16:26:18.231Z,66.90
2018-04-23T16:28:44.630Z,67.10
2018-04-23T16:31:11.053Z,67.00
2018-04-23T16:33:37.537Z,67.10
2018-04-23T16:36:03.991Z,68.00
2018-04-23T16:38:30.411Z,67.90
2018-04-23T16:40:56.853Z,68.00
2018-04-23T16:43:23.348Z,67.30
2018-04-23T16:45:49.782Z,68.00
2018-04-23T16:48:16.204Z,68.60
2018-04-23T16:50:43.456Z,68.30
2018-04-23T16:53:09.878Z,69.10
2018-04-23T16:55:37.048Z,69.40
2018-04-23T16:58:03.485Z,69.40
2018-04-23T17:00:29.901Z,70.10
2018-04-23T17:02:57.056Z,70.60
2018-04-23T17:05:23.470Z,70.60
2018-04-23T17:07:50.641Z,69.90
2018-04-23T17:10:17.073Z,69.90
2018-04-23T17:12:43.499Z,70.00
2018-04-23T17:15:09.923Z,69.80
2018-04-23T17:17:37.100Z,69.40
2018-04-23T17:20:03.574Z,69.40
2018-04-23T17:22:30.043Z,70.00
2018-04-23T17:24:56.501Z,69.90
2018-04-23T17:27:22.923Z,70.10
2018-04-23T17:29:49.365Z,70.30
2018-04-23T17:32:15.810Z,70.20
2018-04-23T17:34:42.282Z,70.90
2018-04-23T17:37:08.695Z,71.10
2018-04-23T17:39:35.126Z,71.40
2018-04-23T17:42:01.589Z,71.70
2018-04-23T17:44:28.041Z,72.10
2018-04-23T17:46:55.331Z,72.60
2018-04-23T17:49:21.761Z,72.60
2018-04-23T17:51:48.255Z,72.50
2018-04-23T17:54:15.435Z,73.30
2018-04-23T17:56:41.890Z,72.80
2018-04-23T17:59:08.288Z,72.70
2018-04-23T18:01:35.431Z,72.20
2018-04-23T18:04:02.610Z,72.80
2018-04-23T18:06:29.040Z,72.00
2018-04-23T18:08:55.492Z,72.30
2018-04-23T18:11:21.905Z,72.90
2018-04-23T18:13:48.301Z,72.90
2018-04-23T18:16:15.436Z,73.40
2018-04-23T18:18:41.846Z,73.40
2018-04-23T18:21:08.266Z,73.90
2018-04-23T18:23:34.873Z,74.20
2018-04-23T18:26:02.027Z,74.60
2018-04-23T18:28:28.541Z,74.60
2018-04-23T18:30:55.766Z,75.80
2018-04-23T18:33:22.163Z,75.60
2018-04-23T18:35:48.746Z,75.70
2018-04-23T18:38:15.154Z,76.30
2018-04-23T18:40:41.548Z,76.10
2018-04-23T18:43:08.698Z,76.10
2018-04-23T18:45:35.186Z,76.10
2018-04-23T18:48:01.583Z,76.70
2018-04-23T18:50:28.051Z,76.90
2018-04-23T18:52:56.076Z,76.70
2018-04-23T18:55:22.485Z,76.70
2018-04-23T18:57:49.627Z,76.90
2018-04-23T19:00:16.032Z,76.20
2018-04-23T19:02:42.437Z,77.20
2018-04-23T19:05:08.832Z,78.00
2018-04-23T19:07:35.961Z,79.20
2018-04-23T19:10:02.397Z,79.20
2018-04-23T19:12:28.795Z,79.80
2018-04-23T19:14:55.201Z,79.90
2018-04-23T19:17:21.603Z,80.70
2018-04-23T19:19:47.992Z,80.70
2018-04-23T19:22:14.375Z,80.80
2018-04-23T19:24:40.867Z,81.60
2018-04-23T19:27:07.261Z,82.20
2018-04-23T19:29:34.387Z,83.50
2018-04-23T19:32:00.810Z,83.50
2018-04-23T19:34:27.185Z,83.70
2018-04-23T19:36:53.579Z,83.10
2018-04-23T19:39:20.079Z,83.00
2018-04-23T19:41:46.528Z,82.80
2018-04-23T19:44:12.931Z,82.70
2018-04-23T19:46:39.336Z,82.50
2018-04-23T19:49:06.482Z,82.90
2018-04-23T19:51:33.628Z,83.00
2018-04-23T19:54:00.939Z,83.00
2018-04-23T19:56:27.361Z,83.00
2018-04-23T19:58:53.788Z,82.90
2018-04-23T20:01:20.209Z,82.80
2018-04-23T20:03:46.621Z,82.50
2018-04-23T20:06:13.762Z,82.40
2018-04-23T20:08:40.920Z,82.60
2018-04-23T20:11:08.051Z,82.70
2018-04-23T20:13:34.444Z,82.70
2018-04-23T20:16:00.867Z,82.80
2018-04-23T20:18:27.276Z,83.20
2018-04-23T20:20:53.680Z,82.80
2018-04-23T20:23:20.121Z,83.10
2018-04-23T20:25:46.528Z,83.30
2018-04-23T20:28:12.919Z,83.80
2018-04-23T20:30:39.370Z,84.20
2018-04-23T20:33:05.773Z,84.10
2018-04-23T20:35:32.219Z,84.50
2018-04-23T20:37:58.600Z,84.50
2018-04-23T20:40:25.030Z,85.20
2018-04-23T20:42:51.458Z,85.20
2018-04-23T20:45:17.904Z,85.30
2018-04-23T20:47:44.303Z,86.10
2018-04-23T20:50:10.726Z,85.70
2018-04-23T20:52:37.137Z,86.20
2018-04-23T20:55:03.578Z,85.90
2018-04-23T20:57:30.070Z,85.80
2018-04-23T20:59:56.504Z,85.90
2018-04-23T21:02:23.671Z,85.90
2018-04-23T21:04:50.845Z,86.50
2018-04-23T21:07:17.287Z,86.50
2018-04-23T21:09:43.697Z,86.50
2018-04-23T21:12:10.835Z,87.50
2018-04-23T21:14:37.979Z,89.00
2018-04-23T21:17:04.396Z,88.90
2018-04-23T21:19:30.789Z,89.30
2018-04-23T21:21:57.205Z,88.60
2018-04-23T21:24:23.642Z,88.40
2018-04-23T21:26:50.053Z,87.70
2018-04-23T21:29:17.221Z,87.60
2018-04-23T21:31:43.636Z,88.20
2018-04-23T21:34:10.772Z,87.40
2018-04-23T21:36:37.168Z,88.00
2018-04-23T21:39:04.564Z,87.20
2018-04-23T21:41:30.939Z,87.30
2018-04-23T21:43:57.337Z,87.70
2018-04-23T21:46:24.529Z,88.30
2018-04-23T21:48:50.947Z,88.30
2018-04-23T21:51:17.345Z,88.40
2018-04-23T21:53:44.475Z,88.70
2018-04-23T21:56:10.879Z,88.50
2018-04-23T21:58:37.307Z,88.20
2018-04-23T22:01:03.738Z,88.50
2018-04-23T22:03:30.127Z,88.80
2018-04-23T22:05:57.290Z,88.60
2018-04-23T22:08:24.465Z,87.80
2018-04-23T22:10:51.004Z,87.80
2018-04-23T22:13:17.428Z,87.80
2018-04-23T22:15:43.827Z,88.40
2018-04-23T22:18:10.239Z,88.90
2018-04-23T22:20:36.645Z,88.60
2018-04-23T22:23:03.068Z,88.30
2018-04-23T22:25:29.493Z,87.50
2018-04-23T22:27:55.903Z,87.50
2018-04-23T22:30:23.039Z,88.00
2018-04-23T22:32:49.479Z,87.90
2018-04-23T22:35:16.621Z,89.10
2018-04-23T22:37:43.048Z,88.40
2018-04-23T22:40:09.460Z,88.00
2018-04-23T22:42:35.862Z,88.10
2018-04-23T22:45:02.389Z,87.70
2018-04-23T22:47:28.784Z,87.40
2018-04-23T22:49:55.358Z,87.80
2018-04-23T22:52:21.758Z,87.40
2018-04-23T22:54:48.243Z,87.30
2018-04-23T22:57:14.659Z,86.90
2018-04-23T22:59:41.046Z,86.80
2018-04-23T23:02:07.442Z,87.20
2018-04-23T23:04:33.845Z,87.10
2018-04-23T23:07:00.256Z,87.20
2018-04-23T23:09:26.652Z,87.60
2018-04-23T23:11:53.106Z,87.30
2018-04-23T23:14:19.511Z,87.50
2018-04-23T23:16:45.919Z,88.20
2018-04-23T23:19:12.312Z,88.20
2018-04-23T23:21:39.459Z,88.50
2018-04-23T23:24:05.880Z,87.70
2018-04-23T23:26:33.809Z,87.00
2018-04-23T23:29:00.222Z,87.00
2018-04-23T23:31:26.633Z,87.10
2018-04-23T23:33:53.029Z,88.00
2018-04-23T23:36:19.420Z,88.00
2018-04-23T23:38:46.552Z,87.50
2018-04-23T23:41:13.752Z,87.80
2018-04-23T23:43:40.164Z,87.80
2018-04-23T23:46:06.552Z,88.20
2018-04-23T23:48:32.939Z,88.20
2018-04-23T23:50:59.370Z,88.30
2018-04-23T23:53:25.776Z,87.70
2018-04-23T23:55:52.919Z,87.70
2018-04-23T23:58:20.096Z,87.40
